createdAt,value
2023-05-21T00:00:23.670Z,99.90
2023-05-21T00:02:54.425Z,99.90
2023-05-21T00:05:26.956Z,99.90
2023-05-21T00:07:57.717Z,99.90
2023-05-21T00:10:28.733Z,99.90
2023-05-21T00:13:01.478Z,99.90
2023-05-21T00:15:32.308Z,99.90
2023-05-21T00:18:03.584Z,99.90
2023-05-21T00:20:37.221Z,99.90
2023-05-21T00:23:08.046Z,99.90
2023-05-21T00:25:38.792Z,99.90
2023-05-21T00:28:09.512Z,99.90
2023-05-21T00:30:40.662Z,99.90
2023-05-21T00:33:14.905Z,99.90
2023-05-21T00:35:47.299Z,99.90
2023-05-21T00:38:18.754Z,99.90
2023-05-21T00:40:49.564Z,99.90
2023-05-21T00:43:20.444Z,99.90
2023-05-21T00:45:51.184Z,99.90
2023-05-21T00:48:22.523Z,99.90
2023-05-21T00:50:55.607Z,99.90
2023-05-21T00:53:26.506Z,99.90
2023-05-21T00:55:57.361Z,99.90
2023-05-21T00:58:28.390Z,99.90
2023-05-21T01:00:59.460Z,99.90
2023-05-21T01:03:30.481Z,99.90
2023-05-21T01:06:04.241Z,99.90
2023-05-21T01:08:36.203Z,99.90
2023-05-21T01:11:07.982Z,99.70
2023-05-21T01:13:41.876Z,99.20
2023-05-21T01:16:14.445Z,99.90
2023-05-21T01:18:47.621Z,99.90
2023-05-21T01:21:21.364Z,98.10
2023-05-21T01:23:54.308Z,97.20
2023-05-21T01:26:26.858Z,96.90
2023-05-21T01:28:57.813Z,95.90
2023-05-21T01:31:33.708Z,96.00
2023-05-21T01:34:08.241Z,95.20
2023-05-21T01:36:45.839Z,95.00
2023-05-21T01:39:23.691Z,95.90
2023-05-21T01:41:57.775Z,94.30
2023-05-21T01:44:29.948Z,95.10
2023-05-21T01:47:01.964Z,94.10
2023-05-21T01:49:33.189Z,94.20
2023-05-21T01:52:04.386Z,94.50
2023-05-21T01:54:37.016Z,94.40
2023-05-21T01:57:08.097Z,94.60
2023-05-21T01:59:39.681Z,94.00
2023-05-21T02:02:10.616Z,94.50
2023-05-21T02:04:42.845Z,94.70
2023-05-21T02:07:15.200Z,95.80
2023-05-21T02:09:48.014Z,94.60
2023-05-21T02:12:18.863Z,95.50
2023-05-21T02:14:51.237Z,95.80
2023-05-21T02:17:22.684Z,95.30
2023-05-21T02:19:53.552Z,96.10
2023-05-21T02:22:24.329Z,95.90
2023-05-21T02:24:56.697Z,95.70
2023-05-21T02:27:28.129Z,95.20
2023-05-21T02:29:58.856Z,95.60
2023-05-21T02:32:29.623Z,95.40
2023-05-21T02:35:00.968Z,95.90
2023-05-21T02:37:34.708Z,96.40
2023-05-21T02:40:11.192Z,96.80
2023-05-21T02:42:45.805Z,98.10
2023-05-21T02:45:17.079Z,98.20
2023-05-21T02:47:48.944Z,98.60
2023-05-21T02:50:20.040Z,99.30
2023-05-21T02:52:51.380Z,99.90
2023-05-21T02:55:25.312Z,99.50
2023-05-21T02:57:57.049Z,99.60
2023-05-21T03:00:28.931Z,99.90
2023-05-21T03:03:00.070Z,99.90
2023-05-21T03:05:32.528Z,99.90
2023-05-21T03:08:14.948Z,99.90
2023-05-21T03:10:51.905Z,99.90
2023-05-21T03:13:25.222Z,99.90
2023-05-21T03:18:34.335Z,99.90
2023-05-21T03:23:43.323Z,99.90
2023-05-21T03:26:21.879Z,99.90
2023-05-21T03:28:56.319Z,99.90
2023-05-21T03:31:30.260Z,99.90
2023-05-21T03:34:05.246Z,99.90
2023-05-21T03:36:36.995Z,99.90
2023-05-21T03:40:10.900Z,99.90
2023-05-21T03:42:45.885Z,99.90
2023-05-21T03:45:19.070Z,99.90
2023-05-21T03:47:52.322Z,99.90
2023-05-21T03:50:41.289Z,99.90
2023-05-21T03:53:14.587Z,99.90
2023-05-21T04:01:47.052Z,99.90
2023-05-21T04:04:19.447Z,99.90
2023-05-21T04:06:55.336Z,99.90
2023-05-21T04:15:07.858Z,99.90
2023-05-21T04:20:18.742Z,99.90
2023-05-21T04:22:52.009Z,99.90
2023-05-21T04:25:25.045Z,99.90
2023-05-21T04:27:56.858Z,99.90
2023-05-21T04:30:32.496Z,99.90
2023-05-21T04:33:04.077Z,99.90
2023-05-21T04:35:36.842Z,99.90
2023-05-21T04:38:10.155Z,99.90
2023-05-21T04:40:45.399Z,99.90
2023-05-21T04:56:43.562Z,99.90
2023-05-21T05:23:34.652Z,99.90
2023-05-21T05:26:09.646Z,99.90
2023-05-21T21:25:40.037Z,99.90
2023-05-21T21:28:12.174Z,99.90
2023-05-21T21:30:46.012Z,99.90
2023-05-21T21:33:19.328Z,99.90
2023-05-21T21:35:51.344Z,99.90
2023-05-21T21:38:22.812Z,99.90
2023-05-21T21:40:56.218Z,99.90
2023-05-21T21:43:26.988Z,99.90
2023-05-21T21:45:58.225Z,99.90
2023-05-21T21:48:29.632Z,99.90
2023-05-21T21:51:01.576Z,99.90
2023-05-21T21:53:32.269Z,99.90
2023-05-21T21:56:04.671Z,99.90
2023-05-21T21:58:35.382Z,99.90
2023-05-21T22:01:06.460Z,99.90
2023-05-21T22:03:37.897Z,99.90
2023-05-21T22:06:10.319Z,99.90
2023-05-21T22:08:41.738Z,99.90
2023-05-21T22:11:15.311Z,99.90
2023-05-21T22:13:46.704Z,99.90
2023-05-21T22:16:18.581Z,99.90
2023-05-21T22:18:51.106Z,99.90
2023-05-21T22:21:28.021Z,99.90
2023-05-21T22:23:59.747Z,99.90
2023-05-21T22:26:35.647Z,99.90
2023-05-21T22:29:06.599Z,99.90
2023-05-21T22:31:37.768Z,99.90
2023-05-21T22:34:08.832Z,99.90
2023-05-21T22:36:41.406Z,99.90
2023-05-21T22:39:12.386Z,99.90
2023-05-21T22:41:45.743Z,99.90
2023-05-21T22:44:17.236Z,99.90
2023-05-21T22:46:48.556Z,99.90
2023-05-21T22:49:20.553Z,99.90
2023-05-21T22:51:53.497Z,99.90
2023-05-21T22:54:25.157Z,99.90
2023-05-21T22:56:58.270Z,99.90
2023-05-21T22:59:29.739Z,99.90
2023-05-21T23:02:02.426Z,99.90
2023-05-21T23:04:43.736Z,99.90
2023-05-21T23:07:16.502Z,99.90
2023-05-21T23:09:47.868Z,99.90
2023-05-21T23:12:21.230Z,99.90
2023-05-21T23:14:52.736Z,99.90
2023-05-21T23:17:24.762Z,99.90
2023-05-21T23:19:55.508Z,99.90
2023-05-21T23:25:11.440Z,99.90
2023-05-21T23:27:44.891Z,99.90
2023-05-21T23:30:16.522Z,99.90
2023-05-21T23:32:57.014Z,99.90
2023-05-21T23:35:27.847Z,99.90
2023-05-21T23:37:58.955Z,99.90
2023-05-21T23:40:30.632Z,99.90
2023-05-21T23:43:03.622Z,99.90
2023-05-21T23:45:34.746Z,99.90
2023-05-21T23:48:06.121Z,99.90
2023-05-21T23:50:37.893Z,99.90
2023-05-21T23:53:09.579Z,99.90
2023-05-21T23:55:40.991Z,99.90
2023-05-21T23:58:14.987Z,99.90
